Time;durP1;ratioP1;P1;durP2;ratioP2;P2;SDS_P1;SDS_P2;PMS_P1;PMS_P2;Temp;Humidity;BMP_temperature;BMP_pressure;BME280_temperature;BME280_humidity;BME280_pressure;Samples;Min_cycle;Max_cycle;Signal;HPM_P1;HPM_P2
2021/09/05 00:02:03;;;;;;;14.70;8.60;;;;;;;;;;5099829;27;20475;-71
2021/09/05 00:04:31;;;;;;;13.13;8.53;;;;;;;;;;5099541;27;20491;-71
2021/09/05 00:07:04;;;;;;;11.80;7.73;;;;;;;;;;5099379;27;20459;-71
2021/09/05 00:09:32;;;;;;;13.00;6.93;;;;;;;;;;5100220;27;20589;-70
2021/09/05 00:11:59;;;;;;;10.83;7.37;;;;;;;;;;5099041;28;20806;-70
2021/09/05 00:14:27;;;;;;;11.70;7.13;;;;;;;;;;5097557;27;20465;-71
2021/09/05 00:16:55;;;;;;;28.97;9.10;;;;;;;;;;5099242;27;20793;-71
2021/09/05 00:19:22;;;;;;;16.03;7.30;;;;;;;;;;5098582;28;20564;-71
2021/09/05 00:21:50;;;;;;;11.20;6.50;;;;;;;;;;5098903;27;20557;-71
2021/09/05 00:24:19;;;;;;;14.83;8.00;;;;;;;;;;5099688;27;20590;-72
2021/09/05 00:26:47;;;;;;;11.90;7.40;;;;;;;;;;5099460;27;20547;-71
2021/09/05 00:29:15;;;;;;;10.47;7.67;;;;;;;;;;5100061;27;21010;-71
2021/09/05 00:31:43;;;;;;;11.57;7.17;;;;;;;;;;5099816;27;20483;-71
2021/09/05 00:34:11;;;;;;;13.07;7.90;;;;;;;;;;5091852;28;20513;-71
2021/09/05 00:36:39;;;;;;;14.00;8.30;;;;;;;;;;5098851;28;20534;-71
2021/09/05 00:39:07;;;;;;;10.70;7.43;;;;;;;;;;5098618;27;20473;-71
2021/09/05 00:41:36;;;;;;;12.70;7.30;;;;;;;;;;5095143;27;20497;-71
2021/09/05 00:44:05;;;;;;;11.27;7.00;;;;;;;;;;5089851;28;20511;-71
2021/09/05 00:46:34;;;;;;;17.90;8.77;;;;;;;;;;5098969;28;20810;-71
2021/09/05 00:49:02;;;;;;;10.63;6.67;;;;;;;;;;5098726;28;20524;-71
2021/09/05 00:51:30;;;;;;;11.93;6.83;;;;;;;;;;5098164;28;20468;-71
2021/09/05 00:53:59;;;;;;;10.47;7.00;;;;;;;;;;5098443;28;20731;-71
2021/09/05 00:56:28;;;;;;;10.20;7.10;;;;;;;;;;5098159;28;20484;-71
2021/09/05 00:59:02;;;;;;;10.03;7.13;;;;;;;;;;5098009;28;20467;-71
2021/09/05 01:01:30;;;;;;;11.60;7.60;;;;;;;;;;5096877;28;20945;-71
2021/09/05 01:03:57;;;;;;;16.93;9.47;;;;;;;;;;5096585;28;21119;-71
2021/09/05 01:06:26;;;;;;;11.77;6.37;;;;;;;;;;5097459;28;20455;-71
2021/09/05 01:08:54;;;;;;;15.80;7.03;;;;;;;;;;5097612;28;20503;-71
2021/09/05 01:11:22;;;;;;;10.30;6.10;;;;;;;;;;5097937;28;20451;-71
2021/09/05 01:13:50;;;;;;;13.57;7.53;;;;;;;;;;5097728;28;20478;-71
2021/09/05 01:16:26;;;;;;;10.60;6.50;;;;;;;;;;5097679;28;20718;-71
2021/09/05 01:18:55;;;;;;;11.00;6.30;;;;;;;;;;5098321;28;20462;-71
2021/09/05 01:21:24;;;;;;;13.13;7.00;;;;;;;;;;5098086;28;20452;-71
2021/09/05 01:23:53;;;;;;;11.47;7.50;;;;;;;;;;5099041;28;20732;-71
2021/09/05 01:26:23;;;;;;;14.83;7.93;;;;;;;;;;5097315;28;20468;-71
2021/09/05 01:28:53;;;;;;;12.50;7.47;;;;;;;;;;5098331;28;20966;-71
2021/09/05 01:31:21;;;;;;;13.50;7.47;;;;;;;;;;5098277;28;20525;-71
2021/09/05 01:33:49;;;;;;;10.50;7.40;;;;;;;;;;5097317;28;20482;-71
2021/09/05 01:36:17;;;;;;;13.20;7.30;;;;;;;;;;5097714;28;20460;-71
2021/09/05 01:38:44;;;;;;;12.87;8.70;;;;;;;;;;5097224;28;20479;-71
2021/09/05 01:41:12;;;;;;;16.07;8.70;;;;;;;;;;5097502;28;20459;-71
2021/09/05 01:43:40;;;;;;;10.77;7.63;;;;;;;;;;5088501;28;20742;-71
2021/09/05 01:46:09;;;;;;;15.13;7.77;;;;;;;;;;5056911;28;20463;-71
2021/09/05 01:48:37;;;;;;;11.40;8.67;;;;;;;;;;5052540;28;20455;-71
2021/09/05 01:51:04;;;;;;;10.27;7.03;;;;;;;;;;5037386;28;20466;-71
2021/09/05 01:53:34;;;;;;;11.40;7.20;;;;;;;;;;5036555;28;20548;-71
2021/09/05 01:56:01;;;;;;;12.30;6.70;;;;;;;;;;5037539;28;20458;-71
2021/09/05 01:58:29;;;;;;;11.90;7.40;;;;;;;;;;5036830;28;20941;-71
2021/09/05 02:00:57;;;;;;;11.90;7.37;;;;;;;;;;5036571;28;20549;-71
2021/09/05 02:03:29;;;;;;;9.83;7.07;;;;;;;;;;5037286;28;20463;-73
2021/09/05 02:05:57;;;;;;;11.50;7.07;;;;;;;;;;5036894;28;20970;-72
2021/09/05 02:08:25;;;;;;;11.47;7.70;;;;;;;;;;5036621;28;20475;-71
2021/09/05 02:10:52;;;;;;;11.50;6.63;;;;;;;;;;5036448;28;20458;-71
2021/09/05 02:13:20;;;;;;;11.00;6.70;;;;;;;;;;5035590;28;20490;-71
2021/09/05 02:15:49;;;;;;;11.27;7.20;;;;;;;;;;5037219;28;20547;-71
2021/09/05 02:18:17;;;;;;;13.93;6.97;;;;;;;;;;5036713;28;20472;-71
2021/09/05 02:20:46;;;;;;;13.50;5.90;;;;;;;;;;5036547;28;20731;-71
2021/09/05 02:23:13;;;;;;;14.10;6.13;;;;;;;;;;5036526;28;20490;-71
2021/09/05 02:25:41;;;;;;;11.17;6.43;;;;;;;;;;5036597;28;20573;-71
2021/09/05 02:28:09;;;;;;;9.90;6.60;;;;;;;;;;5036468;28;20806;-71
2021/09/05 02:30:37;;;;;;;11.47;6.80;;;;;;;;;;5036940;28;20458;-71
2021/09/05 02:33:05;;;;;;;9.33;6.37;;;;;;;;;;5036979;28;20831;-71
2021/09/05 02:35:33;;;;;;;10.13;5.50;;;;;;;;;;5036406;28;20466;-71
2021/09/05 02:38:03;;;;;;;17.00;7.53;;;;;;;;;;5035473;28;20465;-71
2021/09/05 02:40:31;;;;;;;12.70;6.50;;;;;;;;;;5036336;28;20454;-71
2021/09/05 02:42:58;;;;;;;9.00;5.60;;;;;;;;;;5036390;28;20458;-70
2021/09/05 02:45:26;;;;;;;10.00;5.97;;;;;;;;;;5036688;28;20490;-71
2021/09/05 02:47:54;;;;;;;11.83;6.47;;;;;;;;;;5036240;28;20462;-71
2021/09/05 02:50:22;;;;;;;12.10;6.43;;;;;;;;;;5036824;28;20481;-71
2021/09/05 02:52:49;;;;;;;11.70;6.90;;;;;;;;;;5037154;28;20537;-70
2021/09/05 02:55:18;;;;;;;11.80;8.07;;;;;;;;;;5036496;28;20879;-71
2021/09/05 02:57:46;;;;;;;15.87;8.07;;;;;;;;;;5036155;28;20462;-71
2021/09/05 03:00:14;;;;;;;10.73;6.67;;;;;;;;;;5036271;28;20454;-70
2021/09/05 03:02:45;;;;;;;8.53;6.33;;;;;;;;;;5036455;28;20948;-71
2021/09/05 03:05:14;;;;;;;9.13;6.13;;;;;;;;;;5035446;28;20575;-71
2021/09/05 03:07:41;;;;;;;9.87;7.27;;;;;;;;;;5036037;28;20465;-70
2021/09/05 03:10:10;;;;;;;6.77;5.23;;;;;;;;;;5036457;28;21353;-71
2021/09/05 03:12:39;;;;;;;13.80;6.77;;;;;;;;;;5036066;28;20933;-70
2021/09/05 03:15:08;;;;;;;10.40;5.60;;;;;;;;;;5036829;28;20561;-71
2021/09/05 03:17:35;;;;;;;10.80;7.03;;;;;;;;;;5035917;28;20454;-72
2021/09/05 03:20:03;;;;;;;9.53;6.00;;;;;;;;;;5036271;28;20557;-72
2021/09/05 03:22:31;;;;;;;8.67;6.33;;;;;;;;;;5035812;28;20700;-72
2021/09/05 03:25:00;;;;;;;8.43;5.50;;;;;;;;;;5036316;28;20894;-71
2021/09/05 03:27:28;;;;;;;9.17;5.20;;;;;;;;;;5036438;28;20861;-72
2021/09/05 03:29:57;;;;;;;10.60;6.20;;;;;;;;;;5036077;28;20952;-72
2021/09/05 03:32:25;;;;;;;8.10;5.30;;;;;;;;;;5035557;28;20445;-71
2021/09/05 03:34:53;;;;;;;9.60;5.93;;;;;;;;;;5036454;28;20473;-72
2021/09/05 03:37:21;;;;;;;9.63;6.47;;;;;;;;;;5035903;28;20589;-72
2021/09/05 03:39:49;;;;;;;11.40;6.53;;;;;;;;;;5036213;28;20466;-72
2021/09/05 03:42:16;;;;;;;9.60;5.50;;;;;;;;;;5035926;28;20537;-72
2021/09/05 03:44:44;;;;;;;9.40;5.47;;;;;;;;;;5036312;28;20954;-72
2021/09/05 03:47:14;;;;;;;11.80;5.07;;;;;;;;;;5036766;28;20470;-72
2021/09/05 03:49:42;;;;;;;10.27;5.60;;;;;;;;;;5039269;28;20468;-72
2021/09/05 03:52:13;;;;;;;7.43;5.47;;;;;;;;;;5039856;28;20554;-72
2021/09/05 03:54:41;;;;;;;9.93;5.93;;;;;;;;;;5041062;28;20473;-71
2021/09/05 03:57:09;;;;;;;10.03;5.43;;;;;;;;;;5039118;28;20518;-72
2021/09/05 03:59:37;;;;;;;7.57;5.10;;;;;;;;;;5040187;28;20466;-72
2021/09/05 04:02:05;;;;;;;10.50;5.80;;;;;;;;;;5040535;28;20495;-72
2021/09/05 04:04:34;;;;;;;9.13;4.80;;;;;;;;;;5039107;28;20788;-72
2021/09/05 04:07:02;;;;;;;9.47;5.20;;;;;;;;;;5037615;28;20457;-71
2021/09/05 04:12:15;;;;;;;7.43;4.60;;;;;;;;;;5037953;28;20986;-72
2021/09/05 04:14:43;;;;;;;8.80;5.10;;;;;;;;;;5040118;28;21147;-72
2021/09/05 04:17:11;;;;;;;11.07;5.63;;;;;;;;;;5031821;28;20548;-72
2021/09/05 04:19:43;;;;;;;8.77;4.70;;;;;;;;;;5040571;28;20884;-72
2021/09/05 04:22:11;;;;;;;11.17;4.90;;;;;;;;;;5039860;28;20781;-72
2021/09/05 04:24:39;;;;;;;6.67;4.97;;;;;;;;;;5039518;28;20919;-72
2021/09/05 04:27:07;;;;;;;9.33;4.80;;;;;;;;;;5040046;28;20473;-72
2021/09/05 04:29:35;;;;;;;8.50;5.70;;;;;;;;;;5040004;28;20493;-72
2021/09/05 04:32:03;;;;;;;11.60;5.10;;;;;;;;;;5039514;28;20557;-71
2021/09/05 04:34:31;;;;;;;9.00;5.47;;;;;;;;;;5039467;28;20801;-72
2021/09/05 04:37:00;;;;;;;8.87;5.10;;;;;;;;;;5038943;28;20542;-72
2021/09/05 04:39:28;;;;;;;8.03;5.77;;;;;;;;;;5039131;28;20524;-72
2021/09/05 04:41:58;;;;;;;5.87;4.57;;;;;;;;;;5039561;28;20473;-72
2021/09/05 04:44:26;;;;;;;8.40;4.77;;;;;;;;;;5038764;28;20511;-72
2021/09/05 04:46:54;;;;;;;7.97;5.40;;;;;;;;;;5039456;28;20466;-72
2021/09/05 04:49:22;;;;;;;10.73;5.17;;;;;;;;;;5038799;28;20450;-71
2021/09/05 04:51:49;;;;;;;12.60;4.50;;;;;;;;;;5038869;28;20462;-72
2021/09/05 04:54:19;;;;;;;9.00;5.70;;;;;;;;;;5039307;28;20473;-72
2021/09/05 04:56:47;;;;;;;10.53;4.63;;;;;;;;;;5039319;28;20455;-72
2021/09/05 04:59:14;;;;;;;7.57;3.93;;;;;;;;;;5039091;28;20812;-72
2021/09/05 05:01:42;;;;;;;8.37;4.80;;;;;;;;;;5038747;28;20537;-72
2021/09/05 05:04:10;;;;;;;6.50;4.30;;;;;;;;;;5039146;28;20536;-72
2021/09/05 05:06:40;;;;;;;7.60;4.40;;;;;;;;;;5039318;28;20458;-72
2021/09/05 05:09:08;;;;;;;11.90;4.87;;;;;;;;;;5038865;28;20450;-72
2021/09/05 05:11:37;;;;;;;6.40;5.00;;;;;;;;;;5038855;28;20489;-72
2021/09/05 05:14:05;;;;;;;7.73;4.33;;;;;;;;;;5038857;28;20477;-71
2021/09/05 05:16:32;;;;;;;7.97;4.60;;;;;;;;;;5038496;28;20462;-72
2021/09/05 05:19:00;;;;;;;13.33;5.80;;;;;;;;;;5038739;28;20553;-71
2021/09/05 05:21:28;;;;;;;9.13;4.60;;;;;;;;;;5038292;28;20960;-71
2021/09/05 05:23:56;;;;;;;6.50;4.60;;;;;;;;;;5038603;28;20528;-72
2021/09/05 05:26:24;;;;;;;7.20;4.60;;;;;;;;;;5038372;28;20486;-72
2021/09/05 05:28:53;;;;;;;6.33;4.50;;;;;;;;;;5038573;28;20463;-72
2021/09/05 05:31:22;;;;;;;11.37;4.90;;;;;;;;;;5038439;28;20462;-72
2021/09/05 05:33:56;;;;;;;7.13;4.57;;;;;;;;;;5038132;28;20458;-72
2021/09/05 05:36:23;;;;;;;7.50;5.53;;;;;;;;;;5037782;28;20601;-72
2021/09/05 05:38:51;;;;;;;12.03;4.20;;;;;;;;;;5038267;28;20548;-71
2021/09/05 05:41:19;;;;;;;5.83;4.30;;;;;;;;;;5054103;28;20476;-71
2021/09/05 05:43:47;;;;;;;8.33;4.37;;;;;;;;;;5057698;28;20531;-71
2021/09/05 05:46:16;;;;;;;5.43;3.70;;;;;;;;;;5057525;28;20493;-71
2021/09/05 05:48:44;;;;;;;9.43;4.73;;;;;;;;;;5057179;28;20465;-71
2021/09/05 05:51:12;;;;;;;5.77;3.30;;;;;;;;;;5058267;28;20461;-71
2021/09/05 05:53:40;;;;;;;9.03;4.60;;;;;;;;;;5040126;28;20476;-71
2021/09/05 05:56:08;;;;;;;7.83;4.50;;;;;;;;;;5037354;28;20458;-71
2021/09/05 05:58:35;;;;;;;6.53;3.97;;;;;;;;;;5037569;28;20461;-71
2021/09/05 06:01:03;;;;;;;8.63;4.10;;;;;;;;;;5037652;28;20462;-71
2021/09/05 06:03:32;;;;;;;7.97;4.73;;;;;;;;;;5036872;28;20541;-71
2021/09/05 06:06:00;;;;;;;5.90;4.10;;;;;;;;;;5036881;28;20567;-71
2021/09/05 06:08:28;;;;;;;7.67;4.10;;;;;;;;;;5036867;28;20459;-71
2021/09/05 06:10:55;;;;;;;5.77;3.20;;;;;;;;;;5047030;28;20791;-71
2021/09/05 06:13:23;;;;;;;7.37;4.93;;;;;;;;;;5056787;28;20457;-71
2021/09/05 06:15:51;;;;;;;6.50;4.10;;;;;;;;;;5057335;28;20507;-71
2021/09/05 06:18:19;;;;;;;8.50;4.43;;;;;;;;;;5057220;28;20550;-71
2021/09/05 06:20:48;;;;;;;5.80;3.37;;;;;;;;;;5057449;28;20536;-71
2021/09/05 06:23:16;;;;;;;6.77;3.63;;;;;;;;;;5056367;28;20524;-71
2021/09/05 06:25:44;;;;;;;5.07;3.73;;;;;;;;;;5056662;28;20485;-71
2021/09/05 06:28:13;;;;;;;4.90;3.13;;;;;;;;;;5053948;28;20469;-71
2021/09/05 06:30:41;;;;;;;4.83;3.40;;;;;;;;;;5036993;28;20454;-71
2021/09/05 06:33:08;;;;;;;6.63;3.60;;;;;;;;;;5033172;28;20464;-71
2021/09/05 06:35:36;;;;;;;7.30;3.83;;;;;;;;;;5031886;28;20473;-71
2021/09/05 06:38:06;;;;;;;5.60;3.60;;;;;;;;;;5037340;28;20475;-71
2021/09/05 06:40:33;;;;;;;5.67;2.80;;;;;;;;;;5037256;28;20462;-71
2021/09/05 06:43:01;;;;;;;6.47;4.30;;;;;;;;;;5037095;28;20693;-71
2021/09/05 06:45:30;;;;;;;6.80;3.00;;;;;;;;;;5035869;28;20550;-71
2021/09/05 06:47:58;;;;;;;8.53;5.10;;;;;;;;;;5036810;28;20951;-72
2021/09/05 06:50:26;;;;;;;9.53;7.13;;;;;;;;;;5038096;28;20791;-71
2021/09/05 06:52:55;;;;;;;9.63;5.40;;;;;;;;;;5056223;28;20536;-72
2021/09/05 06:55:25;;;;;;;7.80;3.00;;;;;;;;;;5056286;28;20572;-71
2021/09/05 06:57:53;;;;;;;7.13;3.70;;;;;;;;;;5056662;28;20817;-71
2021/09/05 07:00:20;;;;;;;6.93;3.70;;;;;;;;;;5056423;28;20465;-71
2021/09/05 07:02:48;;;;;;;6.80;4.17;;;;;;;;;;5056644;28;20454;-71
2021/09/05 07:05:18;;;;;;;7.63;3.47;;;;;;;;;;5046931;28;20477;-72
2021/09/05 07:07:45;;;;;;;10.57;4.57;;;;;;;;;;5056060;28;21054;-71
2021/09/05 07:10:16;;;;;;;5.13;3.37;;;;;;;;;;5056486;28;20461;-72
2021/09/05 07:12:45;;;;;;;7.43;3.80;;;;;;;;;;5056713;28;20544;-71
2021/09/05 07:15:14;;;;;;;5.97;3.30;;;;;;;;;;5055549;28;20503;-72
2021/09/05 07:17:42;;;;;;;5.23;4.07;;;;;;;;;;5039802;28;20875;-71
2021/09/05 07:20:10;;;;;;;6.27;4.17;;;;;;;;;;5035911;28;20962;-72
2021/09/05 07:22:38;;;;;;;8.33;4.13;;;;;;;;;;5036087;28;20843;-71
2021/09/05 07:25:10;;;;;;;6.27;3.50;;;;;;;;;;5041220;28;20462;-73
2021/09/05 07:27:38;;;;;;;5.30;3.30;;;;;;;;;;5040432;28;20525;-71
2021/09/05 07:30:08;;;;;;;6.47;3.70;;;;;;;;;;5040035;28;20726;-71
2021/09/05 07:32:38;;;;;;;8.97;3.30;;;;;;;;;;5057250;28;20456;-71
2021/09/05 07:35:06;;;;;;;4.73;3.20;;;;;;;;;;5060048;28;20465;-71
2021/09/05 07:37:34;;;;;;;6.50;3.77;;;;;;;;;;5060029;28;20476;-71
2021/09/05 07:40:02;;;;;;;11.60;5.40;;;;;;;;;;5060460;28;20464;-71
2021/09/05 07:42:29;;;;;;;4.93;3.77;;;;;;;;;;5060256;28;20545;-71
2021/09/05 07:44:58;;;;;;;13.13;4.90;;;;;;;;;;5059802;28;20952;-71
2021/09/05 07:47:27;;;;;;;8.57;6.30;;;;;;;;;;5059432;28;20613;-71
2021/09/05 07:49:55;;;;;;;5.90;4.47;;;;;;;;;;5060259;28;20553;-71
2021/09/05 07:52:23;;;;;;;6.10;4.07;;;;;;;;;;5059450;28;20461;-72
2021/09/05 07:54:50;;;;;;;5.63;3.90;;;;;;;;;;5059899;28;20467;-72
2021/09/05 07:57:18;;;;;;;4.77;3.93;;;;;;;;;;5060307;28;20890;-73
2021/09/05 07:59:46;;;;;;;4.33;3.20;;;;;;;;;;5057416;28;20458;-73
2021/09/05 08:02:14;;;;;;;6.43;3.67;;;;;;;;;;5059069;28;20554;-72
2021/09/05 08:04:43;;;;;;;4.00;2.83;;;;;;;;;;5059105;28;20456;-72
2021/09/05 08:07:12;;;;;;;8.30;3.93;;;;;;;;;;5055804;28;20477;-72
2021/09/05 08:09:40;;;;;;;6.70;3.37;;;;;;;;;;5046500;28;20458;-72
2021/09/05 08:12:08;;;;;;;6.33;4.33;;;;;;;;;;5059127;28;20568;-72
2021/09/05 08:14:36;;;;;;;6.80;3.90;;;;;;;;;;5049354;28;20588;-72
2021/09/05 08:17:04;;;;;;;7.57;3.40;;;;;;;;;;5039149;28;20573;-71
2021/09/05 08:19:32;;;;;;;7.90;4.00;;;;;;;;;;5038826;28;20455;-73
2021/09/05 08:22:01;;;;;;;5.40;3.97;;;;;;;;;;5037606;28;20458;-73
2021/09/05 08:24:29;;;;;;;6.27;3.87;;;;;;;;;;5038283;28;20454;-72
2021/09/05 08:26:57;;;;;;;6.53;4.23;;;;;;;;;;5041061;28;20834;-71
2021/09/05 08:29:25;;;;;;;6.03;4.50;;;;;;;;;;5057069;28;20460;-71
2021/09/05 08:31:53;;;;;;;5.23;3.37;;;;;;;;;;5057838;28;20462;-71
2021/09/05 08:34:21;;;;;;;6.70;3.97;;;;;;;;;;5057049;28;20453;-71
2021/09/05 08:36:52;;;;;;;5.60;3.57;;;;;;;;;;5055091;28;20469;-71
2021/09/05 08:39:21;;;;;;;6.13;4.20;;;;;;;;;;5037687;28;20730;-71
2021/09/05 08:41:52;;;;;;;6.90;3.77;;;;;;;;;;5037954;28;20459;-71
2021/09/05 08:44:20;;;;;;;7.90;4.40;;;;;;;;;;5038361;28;20471;-71
2021/09/05 08:46:48;;;;;;;5.70;3.60;;;;;;;;;;5037447;28;20777;-71
2021/09/05 08:49:18;;;;;;;5.63;3.53;;;;;;;;;;5038117;28;20862;-72
2021/09/05 08:51:47;;;;;;;5.67;3.20;;;;;;;;;;5034758;28;20725;-72
2021/09/05 08:54:15;;;;;;;5.73;3.30;;;;;;;;;;5037467;28;20462;-71
2021/09/05 08:56:44;;;;;;;7.70;4.67;;;;;;;;;;5038260;28;20477;-71
2021/09/05 08:59:12;;;;;;;12.97;7.30;;;;;;;;;;5036603;28;20458;-71
2021/09/05 09:01:40;;;;;;;6.53;4.37;;;;;;;;;;5036515;28;20531;-71
2021/09/05 09:04:10;;;;;;;6.33;4.77;;;;;;;;;;5051734;28;20485;-71
2021/09/05 09:06:39;;;;;;;5.70;3.50;;;;;;;;;;5057501;28;20596;-72
2021/09/05 09:09:08;;;;;;;11.23;3.60;;;;;;;;;;5057174;28;21179;-72
2021/09/05 09:11:51;;;;;;;7.20;3.37;;;;;;;;;;5056828;28;20539;-72
2021/09/05 09:14:22;;;;;;;7.93;4.47;;;;;;;;;;5055662;28;21073;-72
2021/09/05 09:16:56;;;;;;;6.87;3.87;;;;;;;;;;5056987;28;20465;-70
2021/09/05 09:19:27;;;;;;;6.10;3.90;;;;;;;;;;5056281;28;20544;-72
2021/09/05 09:22:01;;;;;;;5.07;3.43;;;;;;;;;;5054896;28;20460;-72
2021/09/05 09:24:29;;;;;;;9.43;4.90;;;;;;;;;;5052233;28;20515;-71
2021/09/05 09:27:03;;;;;;;7.87;3.17;;;;;;;;;;5055407;28;20924;-71
2021/09/05 09:29:32;;;;;;;6.53;3.60;;;;;;;;;;5055778;28;20467;-70
2021/09/05 09:32:01;;;;;;;9.07;3.93;;;;;;;;;;5054877;28;20457;-73
2021/09/05 09:34:39;;;;;;;6.80;4.50;;;;;;;;;;5056572;28;20561;-72
2021/09/05 09:37:17;;;;;;;6.07;3.20;;;;;;;;;;5054771;28;20478;-73
2021/09/05 09:39:45;;;;;;;9.30;5.60;;;;;;;;;;5055988;28;20572;-71
2021/09/05 09:42:28;;;;;;;9.13;4.67;;;;;;;;;;5056343;28;20457;-71
2021/09/05 09:45:00;;;;;;;6.40;4.07;;;;;;;;;;5055448;28;20457;-71
2021/09/05 09:47:38;;;;;;;5.70;4.00;;;;;;;;;;5054703;28;20576;-71
2021/09/05 09:50:07;;;;;;;8.33;4.37;;;;;;;;;;5055542;28;20480;-71
2021/09/05 09:52:39;;;;;;;7.07;5.03;;;;;;;;;;5054931;28;20559;-71
2021/09/05 09:55:07;;;;;;;5.70;3.50;;;;;;;;;;5053900;28;20499;-71
2021/09/05 09:57:35;;;;;;;6.90;5.53;;;;;;;;;;5055006;28;20476;-70
2021/09/05 10:00:06;;;;;;;10.27;5.73;;;;;;;;;;5043404;28;20460;-71
2021/09/05 10:02:35;;;;;;;6.10;4.07;;;;;;;;;;5036116;28;20466;-71
2021/09/05 10:05:03;;;;;;;7.77;4.97;;;;;;;;;;5036913;28;20527;-71
2021/09/05 10:07:31;;;;;;;12.93;4.97;;;;;;;;;;5036410;28;20490;-70
2021/09/05 10:10:01;;;;;;;12.97;6.90;;;;;;;;;;5035526;28;20454;-71
2021/09/05 10:12:29;;;;;;;7.90;4.67;;;;;;;;;;5034963;28;20476;-71
2021/09/05 10:14:59;;;;;;;9.87;7.27;;;;;;;;;;5036130;28;20462;-71
2021/09/05 10:17:29;;;;;;;5.97;3.80;;;;;;;;;;5036018;28;20489;-71
2021/09/05 10:19:58;;;;;;;8.27;4.17;;;;;;;;;;5035380;28;20479;-71
2021/09/05 10:22:31;;;;;;;9.20;5.33;;;;;;;;;;5036639;28;20466;-72
2021/09/05 10:25:01;;;;;;;8.00;4.90;;;;;;;;;;5035770;28;20493;-72
2021/09/05 10:27:31;;;;;;;7.70;5.90;;;;;;;;;;5036412;28;20577;-72
2021/09/05 10:30:16;;;;;;;7.83;4.60;;;;;;;;;;5047407;28;20854;-71
2021/09/05 10:32:47;;;;;;;8.93;6.50;;;;;;;;;;5056116;28;20465;-71
2021/09/05 10:35:33;;;;;;;8.23;4.97;;;;;;;;;;5046667;28;20457;-72
2021/09/05 10:38:21;;;;;;;7.93;5.20;;;;;;;;;;5047683;28;20469;-71
2021/09/05 10:40:49;;;;;;;7.80;5.27;;;;;;;;;;5055827;28;20497;-72
2021/09/05 10:43:17;;;;;;;5.87;4.90;;;;;;;;;;5056162;28;20465;-72
2021/09/05 10:45:46;;;;;;;12.60;5.33;;;;;;;;;;5055109;28;21000;-71
2021/09/05 10:48:35;;;;;;;5.13;3.30;;;;;;;;;;5055487;28;20829;-72
2021/09/05 10:51:04;;;;;;;9.33;4.23;;;;;;;;;;5053605;28;20481;-72
2021/09/05 10:53:35;;;;;;;9.60;4.50;;;;;;;;;;5051222;28;21128;-72
2021/09/05 10:56:04;;;;;;;11.53;5.00;;;;;;;;;;5064194;28;20460;-72
2021/09/05 10:58:37;;;;;;;5.63;4.23;;;;;;;;;;5075032;28;20912;-71
2021/09/05 11:01:05;;;;;;;8.53;5.77;;;;;;;;;;5062175;28;20457;-73
2021/09/05 11:03:33;;;;;;;5.63;3.87;;;;;;;;;;5049674;28;20461;-73
2021/09/05 11:06:19;;;;;;;7.33;3.70;;;;;;;;;;5043637;28;20548;-73
2021/09/05 11:08:48;;;;;;;8.60;5.70;;;;;;;;;;5053019;28;20465;-73
2021/09/05 11:11:19;;;;;;;8.57;5.50;;;;;;;;;;5055626;28;20545;-73
2021/09/05 11:13:53;;;;;;;6.03;4.53;;;;;;;;;;5056225;28;20469;-73
2021/09/05 11:16:20;;;;;;;13.10;5.77;;;;;;;;;;5053968;28;20481;-73
2021/09/05 11:18:51;;;;;;;8.57;5.27;;;;;;;;;;5054775;28;20603;-73
2021/09/05 11:21:25;;;;;;;6.60;4.70;;;;;;;;;;5047452;28;20508;-72
2021/09/05 11:23:57;;;;;;;6.40;4.90;;;;;;;;;;5035280;28;20462;-73
2021/09/05 11:26:24;;;;;;;7.80;5.63;;;;;;;;;;5041537;28;20780;-73
2021/09/05 11:28:52;;;;;;;7.37;4.20;;;;;;;;;;5055060;28;20469;-73
2021/09/05 11:31:20;;;;;;;6.10;4.73;;;;;;;;;;5048380;28;20935;-72
2021/09/05 11:33:48;;;;;;;13.27;5.37;;;;;;;;;;5045316;28;20481;-72
2021/09/05 11:36:16;;;;;;;7.30;5.40;;;;;;;;;;5048711;28;20465;-72
2021/09/05 11:38:44;;;;;;;9.77;5.50;;;;;;;;;;5035143;28;20466;-72
2021/09/05 11:41:13;;;;;;;6.30;4.40;;;;;;;;;;5037689;28;20470;-72
2021/09/05 11:43:41;;;;;;;7.83;5.67;;;;;;;;;;5035846;28;20477;-72
2021/09/05 11:46:10;;;;;;;9.67;5.90;;;;;;;;;;5041149;28;20493;-72
2021/09/05 11:48:38;;;;;;;7.87;5.07;;;;;;;;;;5041734;28;20486;-71
2021/09/05 11:51:08;;;;;;;11.77;7.47;;;;;;;;;;5052227;28;20446;-71
2021/09/05 11:53:36;;;;;;;9.20;7.13;;;;;;;;;;5053731;28;21034;-71
2021/09/05 11:56:07;;;;;;;13.00;5.73;;;;;;;;;;5043279;28;20461;-71
2021/09/05 11:58:37;;;;;;;8.13;5.50;;;;;;;;;;5035570;28;20472;-71
2021/09/05 12:01:05;;;;;;;10.33;3.77;;;;;;;;;;5051328;28;20489;-71
2021/09/05 12:03:38;;;;;;;5.80;4.30;;;;;;;;;;5055498;28;20497;-71
2021/09/05 12:06:09;;;;;;;9.57;6.40;;;;;;;;;;5048772;28;20457;-71
2021/09/05 12:08:39;;;;;;;7.43;4.80;;;;;;;;;;5035733;28;20740;-72
2021/09/05 12:11:08;;;;;;;11.80;5.73;;;;;;;;;;5042626;28;20465;-72
2021/09/05 12:13:57;;;;;;;6.13;5.40;;;;;;;;;;5040814;28;20859;-72
2021/09/05 12:16:27;;;;;;;7.03;4.90;;;;;;;;;;5030318;28;20465;-71
2021/09/05 12:19:05;;;;;;;7.03;4.67;;;;;;;;;;5037719;28;20458;-71
2021/09/05 12:21:35;;;;;;;6.53;4.50;;;;;;;;;;5050055;28;20450;-71
2021/09/05 12:24:03;;;;;;;10.53;5.07;;;;;;;;;;5058884;28;20942;-71
2021/09/05 12:26:37;;;;;;;10.03;7.27;;;;;;;;;;5056886;28;20448;-71
2021/09/05 12:29:06;;;;;;;6.43;3.57;;;;;;;;;;5057584;28;20551;-71
2021/09/05 12:31:42;;;;;;;8.57;5.30;;;;;;;;;;5055377;28;20787;-71
2021/09/05 12:34:10;;;;;;;10.03;6.10;;;;;;;;;;5046751;28;20461;-73
2021/09/05 12:36:39;;;;;;;10.40;7.60;;;;;;;;;;5041500;28;20465;-73
2021/09/05 12:39:06;;;;;;;9.43;5.93;;;;;;;;;;5046538;28;20845;-72
2021/09/05 12:41:35;;;;;;;9.97;7.13;;;;;;;;;;5042552;28;20544;-72
2021/09/05 12:44:06;;;;;;;8.57;6.80;;;;;;;;;;5042408;28;20470;-73
2021/09/05 12:46:40;;;;;;;9.10;5.97;;;;;;;;;;5049658;28;20500;-72
2021/09/05 12:49:15;;;;;;;12.23;6.60;;;;;;;;;;5043115;28;20470;-72
2021/09/05 12:52:03;;;;;;;20.40;7.67;;;;;;;;;;5048150;28;20512;-72
2021/09/05 12:54:38;;;;;;;10.33;7.80;;;;;;;;;;5047839;28;20466;-71
2021/09/05 12:57:06;;;;;;;13.30;7.73;;;;;;;;;;5047172;28;20492;-72
2021/09/05 12:59:34;;;;;;;16.60;8.40;;;;;;;;;;5040808;28;20488;-72
2021/09/05 13:02:02;;;;;;;13.97;9.00;;;;;;;;;;5049480;28;20466;-71
2021/09/05 13:04:32;;;;;;;12.73;7.67;;;;;;;;;;5045757;28;20458;-72
2021/09/05 13:07:00;;;;;;;11.37;7.37;;;;;;;;;;5045263;28;20458;-73
2021/09/05 13:09:28;;;;;;;11.67;7.03;;;;;;;;;;5048086;28;20531;-71
2021/09/05 13:11:59;;;;;;;9.80;6.87;;;;;;;;;;5048025;28;20453;-71
2021/09/05 13:14:27;;;;;;;9.90;6.87;;;;;;;;;;5039862;28;20854;-70
2021/09/05 13:16:55;;;;;;;9.57;5.90;;;;;;;;;;5044861;28;20495;-69
2021/09/05 13:19:22;;;;;;;10.83;6.80;;;;;;;;;;5053983;28;20560;-71
2021/09/05 13:21:53;;;;;;;11.90;6.60;;;;;;;;;;5045410;28;20548;-73
2021/09/05 13:24:20;;;;;;;11.07;8.43;;;;;;;;;;5034527;28;20468;-72
2021/09/05 13:26:48;;;;;;;11.47;8.60;;;;;;;;;;5030813;28;20462;-72
2021/09/05 13:29:17;;;;;;;12.60;8.00;;;;;;;;;;5048275;28;20476;-72
2021/09/05 13:31:47;;;;;;;12.47;8.30;;;;;;;;;;5047405;28;20466;-72
2021/09/05 13:34:15;;;;;;;12.27;8.53;;;;;;;;;;5036748;28;20469;-72
2021/09/05 13:36:43;;;;;;;9.00;6.50;;;;;;;;;;5040791;28;20463;-72
2021/09/05 13:39:12;;;;;;;13.23;10.27;;;;;;;;;;5037683;28;20462;-70
2021/09/05 13:41:40;;;;;;;13.00;10.83;;;;;;;;;;5049961;28;20453;-72
2021/09/05 13:44:07;;;;;;;34.27;22.43;;;;;;;;;;5049054;28;20485;-71
2021/09/05 13:46:35;;;;;;;14.53;8.67;;;;;;;;;;5041065;28;20475;-71
2021/09/05 13:49:03;;;;;;;14.43;9.40;;;;;;;;;;5038612;28;20851;-71
2021/09/05 13:51:33;;;;;;;14.87;9.47;;;;;;;;;;5055157;28;20805;-72
2021/09/05 13:54:02;;;;;;;15.80;9.70;;;;;;;;;;5035995;28;20458;-71
2021/09/05 13:56:31;;;;;;;12.80;9.43;;;;;;;;;;5036914;28;20466;-72
2021/09/05 13:58:59;;;;;;;13.67;9.50;;;;;;;;;;5041377;28;20554;-71
2021/09/05 14:01:26;;;;;;;14.47;10.47;;;;;;;;;;5055159;28;20458;-71
2021/09/05 14:03:54;;;;;;;11.97;8.87;;;;;;;;;;5056375;28;20554;-72
2021/09/05 14:06:22;;;;;;;15.73;10.73;;;;;;;;;;5055218;28;20454;-71
2021/09/05 14:08:50;;;;;;;15.70;11.00;;;;;;;;;;5055946;28;20485;-72
2021/09/05 14:11:18;;;;;;;14.03;9.17;;;;;;;;;;5056167;28;20487;-71
2021/09/05 14:13:47;;;;;;;15.93;10.40;;;;;;;;;;5054730;28;20457;-72
2021/09/05 14:16:15;;;;;;;15.40;9.87;;;;;;;;;;5053442;28;20473;-72
2021/09/05 14:18:46;;;;;;;20.10;10.20;;;;;;;;;;5056908;28;20464;-72
2021/09/05 14:21:14;;;;;;;16.67;10.03;;;;;;;;;;5056366;28;20454;-71
2021/09/05 14:23:42;;;;;;;12.83;9.77;;;;;;;;;;5055379;28;20458;-71
2021/09/05 14:26:16;;;;;;;17.60;10.57;;;;;;;;;;5055209;28;20457;-72
2021/09/05 14:28:48;;;;;;;17.53;10.03;;;;;;;;;;5035724;28;20518;-72
2021/09/05 14:31:23;;;;;;;24.07;16.07;;;;;;;;;;5035848;28;20548;-72
2021/09/05 14:50:41;;;;;;;15.20;9.67;;;;;;;;;;5053802;28;20437;-72
2021/09/05 14:55:55;;;;;;;14.30;8.40;;;;;;;;;;5035545;28;20436;-71
2021/09/05 14:58:23;;;;;;;11.90;7.20;;;;;;;;;;5035064;28;20864;-71
2021/09/05 15:00:55;;;;;;;16.17;9.80;;;;;;;;;;5034803;28;20484;-71
2021/09/05 15:03:34;;;;;;;14.53;10.00;;;;;;;;;;5034991;28;20952;-71
2021/09/05 15:06:13;;;;;;;14.70;9.40;;;;;;;;;;5035568;28;20735;-71
2021/09/05 15:11:26;;;;;;;16.00;9.67;;;;;;;;;;5048753;28;20868;-72
2021/09/05 15:13:54;;;;;;;14.37;9.63;;;;;;;;;;5054863;28;20458;-74